createdAt,value
2018-02-17T00:00:43.127Z,99.99
2018-02-17T00:01:53.083Z,99.99
2018-02-17T00:03:02.816Z,99.99
2018-02-17T00:04:12.770Z,99.99
2018-02-17T00:05:22.736Z,99.99
2018-02-17T00:06:32.432Z,99.99
2018-02-17T00:07:41.869Z,99.99
2018-02-17T00:08:51.313Z,99.99
2018-02-17T00:10:01.015Z,99.99
2018-02-17T00:11:10.716Z,99.99
2018-02-17T00:12:20.409Z,99.99
2018-02-17T00:13:29.844Z,99.99
2018-02-17T00:14:39.799Z,99.99
2018-02-17T00:15:49.246Z,99.99
2018-02-17T00:16:58.942Z,99.99
2018-02-17T00:18:08.915Z,99.99
2018-02-17T00:19:18.895Z,99.99
2018-02-17T00:20:28.365Z,99.99
2018-02-17T00:21:38.340Z,99.99
2018-02-17T00:22:48.060Z,99.99
2018-02-17T00:23:58.026Z,99.99
2018-02-17T00:25:07.739Z,99.99
2018-02-17T00:26:17.716Z,99.99
2018-02-17T00:27:27.686Z,99.99
2018-02-17T00:28:37.398Z,99.99
2018-02-17T00:29:47.099Z,99.99
2018-02-17T00:30:57.057Z,99.99
2018-02-17T00:32:07.023Z,99.99
2018-02-17T00:33:16.989Z,99.99
2018-02-17T00:34:26.948Z,99.99
2018-02-17T00:35:36.674Z,99.99
2018-02-17T00:36:46.371Z,99.99
2018-02-17T00:37:56.325Z,99.99
2018-02-17T00:39:06.289Z,99.99
2018-02-17T00:40:16.254Z,99.99
2018-02-17T00:41:26.281Z,99.99
2018-02-17T00:42:35.977Z,99.99
2018-02-17T00:43:45.424Z,99.99
2018-02-17T00:44:55.436Z,99.99
2018-02-17T00:46:05.509Z,99.99
2018-02-17T00:47:15.214Z,99.99
2018-02-17T00:48:25.174Z,99.99
2018-02-17T00:49:34.884Z,99.99
2018-02-17T00:50:44.853Z,99.99
2018-02-17T00:51:54.563Z,99.99
2018-02-17T00:53:04.529Z,99.99
2018-02-17T00:54:14.225Z,99.99
2018-02-17T00:55:24.195Z,99.99
2018-02-17T00:56:34.157Z,99.99
2018-02-17T00:57:44.102Z,99.99
2018-02-17T00:58:53.796Z,99.99
2018-02-17T01:00:03.233Z,99.99
2018-02-17T01:01:12.938Z,99.99
2018-02-17T01:02:22.648Z,99.99
2018-02-17T01:03:32.359Z,99.99
2018-02-17T01:04:42.062Z,99.99
2018-02-17T01:05:52.021Z,99.99
2018-02-17T01:07:01.990Z,99.99
2018-02-17T01:08:11.705Z,99.99
2018-02-17T01:09:21.400Z,99.99
2018-02-17T01:10:31.105Z,99.99
2018-02-17T01:11:41.081Z,99.99
2018-02-17T01:12:50.788Z,99.99
2018-02-17T01:14:00.502Z,99.99
2018-02-17T01:15:09.944Z,99.99
2018-02-17T01:16:19.900Z,99.99
2018-02-17T01:17:29.848Z,99.99
2018-02-17T01:18:39.805Z,99.99
2018-02-17T01:19:49.770Z,99.99
2018-02-17T01:20:59.474Z,99.99
2018-02-17T01:22:09.432Z,99.99
2018-02-17T01:23:19.399Z,99.99
2018-02-17T01:24:29.374Z,99.99
2018-02-17T01:25:38.812Z,99.99
2018-02-17T01:26:48.774Z,99.99
2018-02-17T01:27:58.726Z,99.99
2018-02-17T01:29:08.684Z,99.99
2018-02-17T01:30:18.393Z,99.99
2018-02-17T01:31:28.351Z,99.99
2018-02-17T01:32:37.788Z,99.99
2018-02-17T01:33:47.751Z,99.99
2018-02-17T01:34:57.453Z,99.99
2018-02-17T01:36:07.168Z,99.99
2018-02-17T01:37:17.131Z,99.99
2018-02-17T01:38:26.310Z,99.99
2018-02-17T01:39:36.269Z,99.99
2018-02-17T01:40:46.231Z,99.99
2018-02-17T01:41:55.670Z,99.99
2018-02-17T01:43:05.121Z,99.99
2018-02-17T01:44:14.816Z,99.99
2018-02-17T01:45:24.258Z,99.99
2018-02-17T01:46:34.231Z,99.99
2018-02-17T01:47:44.448Z,99.99
2018-02-17T01:48:54.147Z,99.99
2018-02-17T01:50:04.098Z,99.99
2018-02-17T01:51:13.790Z,99.99
2018-02-17T01:52:23.235Z,99.99
2018-02-17T01:53:33.194Z,99.99
2018-02-17T01:54:43.145Z,99.99
2018-02-17T01:55:52.839Z,99.99
2018-02-17T01:57:02.019Z,99.99
2018-02-17T01:58:11.454Z,99.99
2018-02-17T01:59:20.622Z,99.99
2018-02-17T02:00:30.567Z,99.99
2018-02-17T02:01:39.740Z,99.99
2018-02-17T02:02:49.687Z,99.99
2018-02-17T02:03:59.635Z,99.99
2018-02-17T02:05:09.323Z,99.99
2018-02-17T02:06:19.035Z,99.99
2018-02-17T02:07:29.010Z,99.99
2018-02-17T02:08:38.973Z,99.99
2018-02-17T02:09:49.191Z,99.99
2018-02-17T02:10:58.889Z,99.99
2018-02-17T02:12:08.580Z,99.99
2018-02-17T02:13:18.530Z,99.99
2018-02-17T02:14:28.214Z,99.99
2018-02-17T02:15:38.176Z,99.99
2018-02-17T02:16:48.135Z,99.99
2018-02-17T02:17:57.880Z,99.99
2018-02-17T02:19:07.872Z,99.99
2018-02-17T02:20:17.826Z,99.99
2018-02-17T02:21:28.012Z,99.99
2018-02-17T02:22:37.955Z,99.99
2018-02-17T02:23:47.394Z,99.99
2018-02-17T02:24:57.085Z,99.99
2018-02-17T02:26:06.520Z,99.99
2018-02-17T02:27:16.217Z,99.99
2018-02-17T02:28:25.396Z,99.99
2018-02-17T02:29:35.102Z,99.99
2018-02-17T02:30:44.531Z,99.99
2018-02-17T02:31:53.964Z,99.99
2018-02-17T02:33:03.942Z,99.99
2018-02-17T02:34:13.647Z,99.99
2018-02-17T02:35:23.618Z,99.99
2018-02-17T02:36:33.060Z,99.99
2018-02-17T02:37:42.769Z,99.99
2018-02-17T02:38:52.485Z,99.99
2018-02-17T02:40:02.191Z,99.99
2018-02-17T02:41:11.892Z,99.99
2018-02-17T02:42:21.598Z,99.99
2018-02-17T02:43:31.566Z,99.99
2018-02-17T02:44:41.010Z,99.99
2018-02-17T02:45:50.725Z,99.99
2018-02-17T02:47:00.423Z,99.99
2018-02-17T02:48:10.387Z,99.99
2018-02-17T02:49:20.085Z,99.99
2018-02-17T02:50:30.068Z,99.99
2018-02-17T02:51:39.770Z,99.99
2018-02-17T02:52:49.736Z,99.99
2018-02-17T02:53:59.176Z,99.99
2018-02-17T02:55:08.361Z,99.99
2018-02-17T02:56:18.076Z,99.99
2018-02-17T02:57:27.764Z,99.99
2018-02-17T02:58:37.754Z,99.99
2018-02-17T02:59:46.932Z,99.99
2018-02-17T03:00:56.631Z,99.99
2018-02-17T03:02:06.587Z,99.99
2018-02-17T03:03:16.534Z,99.99
2018-02-17T03:04:26.234Z,99.99
2018-02-17T03:05:36.212Z,99.99
2018-02-17T03:06:45.916Z,99.99
2018-02-17T03:07:55.653Z,99.99
2018-02-17T03:09:05.366Z,99.99
2018-02-17T03:10:15.315Z,99.99
2018-02-17T03:11:24.494Z,99.99
2018-02-17T03:12:34.449Z,99.99
2018-02-17T03:13:44.410Z,99.99
2018-02-17T03:14:54.367Z,99.99
2018-02-17T03:16:04.438Z,99.99
2018-02-17T03:17:14.132Z,99.99
2018-02-17T03:18:23.829Z,99.99
2018-02-17T03:19:33.522Z,99.99
2018-02-17T03:20:43.230Z,99.99
2018-02-17T03:21:53.182Z,99.99
2018-02-17T03:23:03.145Z,99.99
2018-02-17T03:24:13.107Z,99.99
2018-02-17T03:25:23.067Z,99.99
2018-02-17T03:26:32.759Z,99.99
2018-02-17T03:27:42.732Z,99.99
2018-02-17T03:28:52.687Z,99.99
2018-02-17T03:30:02.380Z,99.99
2018-02-17T03:31:12.119Z,99.99
2018-02-17T03:32:22.057Z,99.99
2018-02-17T03:33:32.014Z,99.99
2018-02-17T03:34:41.715Z,99.99
2018-02-17T03:35:51.147Z,99.99
2018-02-17T03:37:01.114Z,99.99
2018-02-17T03:38:11.065Z,99.99
2018-02-17T03:39:20.786Z,99.99
2018-02-17T03:40:30.216Z,99.99
2018-02-17T03:41:39.920Z,99.99
2018-02-17T03:42:49.620Z,99.99
2018-02-17T03:43:59.311Z,99.99
2018-02-17T03:45:09.003Z,99.99
2018-02-17T03:46:18.442Z,99.99
2018-02-17T03:47:28.392Z,99.99
2018-02-17T03:48:38.354Z,99.99
2018-02-17T03:49:47.804Z,99.99
2018-02-17T03:50:57.500Z,99.99
2018-02-17T03:52:07.450Z,99.99
2018-02-17T03:53:17.166Z,99.99
2018-02-17T03:54:26.869Z,99.99
2018-02-17T03:55:36.337Z,99.99
2018-02-17T03:56:46.034Z,99.99
2018-02-17T03:57:55.721Z,99.99
2018-02-17T03:59:05.670Z,99.99
2018-02-17T04:00:14.870Z,99.99
2018-02-17T04:01:24.815Z,99.99
2018-02-17T04:02:34.513Z,99.99
2018-02-17T04:03:44.214Z,99.99
2018-02-17T04:04:54.169Z,99.99
2018-02-17T04:06:04.129Z,99.99
2018-02-17T04:07:14.086Z,99.99
2018-02-17T04:08:23.778Z,99.99
2018-02-17T04:09:33.471Z,99.99
2018-02-17T04:10:43.423Z,99.99
2018-02-17T04:11:53.113Z,99.99
2018-02-17T04:13:03.069Z,99.99
2018-02-17T04:14:12.759Z,99.99
2018-02-17T04:15:22.716Z,99.99
2018-02-17T04:16:32.413Z,99.99
2018-02-17T04:17:42.130Z,99.99
2018-02-17T04:18:51.826Z,99.99
2018-02-17T04:20:01.771Z,99.99
2018-02-17T04:21:11.718Z,99.99
2018-02-17T04:22:21.407Z,99.99
2018-02-17T04:23:31.361Z,99.99
2018-02-17T04:24:41.077Z,99.99
2018-02-17T04:25:51.025Z,99.99
2018-02-17T04:27:00.211Z,99.99
2018-02-17T04:28:10.166Z,99.99
2018-02-17T04:29:20.113Z,99.99
2018-02-17T04:30:30.076Z,99.99
2018-02-17T04:31:39.510Z,99.99
2018-02-17T04:32:49.214Z,99.99
2018-02-17T04:33:59.181Z,99.99
2018-02-17T04:35:08.871Z,99.99
2018-02-17T04:36:18.578Z,99.99
2018-02-17T04:37:28.532Z,99.99
2018-02-17T04:38:38.488Z,99.99
2018-02-17T04:39:47.922Z,99.99
2018-02-17T04:40:57.614Z,99.99
2018-02-17T04:42:07.301Z,99.99
2018-02-17T04:43:17.249Z,99.99
2018-02-17T04:44:27.197Z,99.99
2018-02-17T04:45:36.898Z,99.99
2018-02-17T04:46:46.849Z,99.99
2018-02-17T04:47:56.553Z,99.99
2018-02-17T04:49:05.996Z,99.99
2018-02-17T04:50:15.939Z,99.99
2018-02-17T04:51:25.899Z,99.99
2018-02-17T04:52:35.586Z,99.99
2018-02-17T04:53:45.290Z,99.99
2018-02-17T04:54:55.245Z,99.99
2018-02-17T04:56:05.213Z,99.99
2018-02-17T04:57:15.164Z,99.99
2018-02-17T04:58:24.852Z,99.99
2018-02-17T04:59:34.304Z,99.99
2018-02-17T05:00:44.004Z,99.99
2018-02-17T05:01:53.184Z,99.99
2018-02-17T05:03:03.141Z,99.99
2018-02-17T05:04:12.585Z,99.99
2018-02-17T05:05:21.770Z,99.99
2018-02-17T05:06:31.208Z,99.99
2018-02-17T05:07:40.906Z,99.99
2018-02-17T05:08:50.605Z,99.99
2018-02-17T05:10:00.055Z,99.99
2018-02-17T05:11:09.751Z,99.99
2018-02-17T05:12:18.940Z,99.99
2018-02-17T05:13:28.900Z,99.99
2018-02-17T05:14:38.866Z,99.99
2018-02-17T05:15:48.604Z,99.99
2018-02-17T05:16:58.290Z,99.99
2018-02-17T05:18:07.991Z,99.99
2018-02-17T05:19:17.947Z,99.99
2018-02-17T05:20:27.904Z,99.99
2018-02-17T05:21:37.603Z,99.99
2018-02-17T05:22:47.579Z,99.99
2018-02-17T05:23:57.270Z,99.99
2018-02-17T05:25:07.298Z,99.99
2018-02-17T05:26:16.739Z,99.99
2018-02-17T05:27:25.913Z,99.99
2018-02-17T05:28:35.860Z,99.99
2018-02-17T05:29:45.555Z,99.99
2018-02-17T05:30:55.520Z,99.99
2018-02-17T05:32:04.992Z,99.99
2018-02-17T05:33:14.949Z,99.99
2018-02-17T05:34:24.639Z,99.99
2018-02-17T05:35:34.072Z,99.99
2018-02-17T05:36:43.768Z,99.99
2018-02-17T05:37:53.715Z,99.99
2018-02-17T05:39:03.663Z,99.99
2018-02-17T05:40:13.632Z,99.99
2018-02-17T05:41:23.317Z,99.99
2018-02-17T05:42:33.274Z,99.99
2018-02-17T05:43:42.967Z,99.99
2018-02-17T05:44:52.411Z,99.99
2018-02-17T05:46:02.375Z,99.99
2018-02-17T05:47:12.068Z,99.99
2018-02-17T05:48:21.780Z,99.99
2018-02-17T05:49:31.729Z,99.99
2018-02-17T05:50:41.690Z,99.99
2018-02-17T05:51:51.707Z,99.99
2018-02-17T05:53:01.398Z,99.99
2018-02-17T05:54:11.347Z,99.99
2018-02-17T05:55:21.292Z,99.99
2018-02-17T05:56:30.993Z,99.99
2018-02-17T05:57:40.679Z,99.99
2018-02-17T05:58:50.386Z,99.99
2018-02-17T06:00:00.089Z,99.99
2018-02-17T06:01:10.062Z,99.99
2018-02-17T06:02:19.497Z,99.99
2018-02-17T06:03:28.680Z,99.99
2018-02-17T06:04:38.382Z,99.99
2018-02-17T06:05:48.361Z,99.99
2018-02-17T06:06:58.066Z,99.99
2018-02-17T06:08:07.767Z,99.99
2018-02-17T06:09:17.207Z,99.99
2018-02-17T06:10:27.159Z,99.99
2018-02-17T06:11:36.336Z,99.99
2018-02-17T06:12:46.038Z,99.99
2018-02-17T06:13:55.994Z,99.99
2018-02-17T06:15:05.940Z,99.99
2018-02-17T06:16:15.887Z,99.99
2018-02-17T06:17:25.844Z,99.99
2018-02-17T06:18:35.791Z,99.99
2018-02-17T06:19:45.487Z,99.99
2018-02-17T06:20:54.923Z,99.99
2018-02-17T06:22:04.881Z,99.99
2018-02-17T06:23:14.857Z,99.99
2018-02-17T06:24:24.803Z,99.99
2018-02-17T06:25:34.750Z,99.99
2018-02-17T06:26:44.178Z,99.99
2018-02-17T06:27:54.125Z,99.99
2018-02-17T06:29:03.836Z,99.99
2018-02-17T06:30:13.795Z,99.99
2018-02-17T06:31:23.753Z,99.99
2018-02-17T06:32:33.452Z,99.99
2018-02-17T06:33:43.415Z,99.99
2018-02-17T06:34:53.124Z,99.99
2018-02-17T06:36:02.834Z,99.99
2018-02-17T06:37:12.790Z,99.99
2018-02-17T06:38:22.486Z,99.99
2018-02-17T06:39:32.448Z,99.99
2018-02-17T06:40:42.402Z,99.99
2018-02-17T06:41:52.081Z,99.99
2018-02-17T06:43:01.796Z,99.99
2018-02-17T06:44:11.797Z,99.99
2018-02-17T06:45:21.491Z,99.99
2018-02-17T06:46:31.449Z,99.99
2018-02-17T06:47:41.409Z,99.99
2018-02-17T06:48:51.105Z,99.99
2018-02-17T06:50:00.617Z,99.99
2018-02-17T06:51:10.573Z,99.99
2018-02-17T06:52:20.007Z,99.99
2018-02-17T06:53:29.436Z,99.99
2018-02-17T06:54:39.156Z,99.99
2018-02-17T06:55:48.590Z,99.99
2018-02-17T06:56:58.321Z,99.99
2018-02-17T06:58:08.309Z,99.99
2018-02-17T06:59:18.264Z,99.99
2018-02-17T07:00:27.998Z,99.99
2018-02-17T07:01:37.694Z,99.99
2018-02-17T07:02:47.660Z,99.99
2018-02-17T07:03:57.094Z,99.99
2018-02-17T07:05:06.787Z,99.99
2018-02-17T07:06:16.495Z,99.99
2018-02-17T07:07:26.471Z,99.99
2018-02-17T07:08:36.440Z,99.99
2018-02-17T07:09:45.635Z,99.99
2018-02-17T07:10:55.326Z,99.99
2018-02-17T07:12:05.282Z,99.99
2018-02-17T07:13:14.996Z,99.99
2018-02-17T07:14:24.455Z,99.99
2018-02-17T07:15:34.408Z,99.99
2018-02-17T07:16:43.852Z,99.99
2018-02-17T07:17:53.292Z,99.99
2018-02-17T07:19:03.012Z,99.99
2018-02-17T07:20:11.932Z,99.99
2018-02-17T07:21:21.637Z,99.99
2018-02-17T07:22:31.076Z,99.99
2018-02-17T07:23:40.778Z,99.99
2018-02-17T07:24:50.489Z,99.99
2018-02-17T07:26:00.204Z,99.99
2018-02-17T07:27:09.904Z,99.99
2018-02-17T07:28:19.876Z,99.99
2018-02-17T07:29:29.837Z,99.99
2018-02-17T07:30:39.534Z,99.99
2018-02-17T07:31:49.504Z,99.99
2018-02-17T07:32:59.206Z,99.99
2018-02-17T07:34:08.643Z,99.99
2018-02-17T07:35:18.622Z,99.99
2018-02-17T07:36:28.585Z,99.99
2018-02-17T07:37:38.561Z,99.99
2018-02-17T07:38:48.250Z,99.99
2018-02-17T07:39:58.226Z,99.99
2018-02-17T07:41:07.672Z,99.99
2018-02-17T07:42:17.623Z,99.99
2018-02-17T07:43:27.325Z,99.99
2018-02-17T07:44:37.053Z,99.99
2018-02-17T07:45:47.129Z,99.99
2018-02-17T07:46:56.852Z,99.99
2018-02-17T07:48:06.858Z,99.99
2018-02-17T07:49:16.300Z,99.99
2018-02-17T07:50:25.517Z,99.99
2018-02-17T07:51:35.145Z,99.99
2018-02-17T07:52:45.075Z,99.99
2018-02-17T07:53:54.805Z,99.99
2018-02-17T07:55:04.537Z,99.99
2018-02-17T07:56:14.508Z,99.99
2018-02-17T07:57:24.474Z,99.99
2018-02-17T07:58:33.916Z,99.99
2018-02-17T07:59:43.884Z,99.99
2018-02-17T08:00:53.858Z,99.99
2018-02-17T08:02:03.307Z,99.99
2018-02-17T08:03:13.256Z,99.99
2018-02-17T08:04:23.227Z,99.99
2018-02-17T08:05:33.188Z,99.99
2018-02-17T08:06:42.892Z,99.99
2018-02-17T08:07:52.322Z,99.99
2018-02-17T08:09:01.508Z,99.99
2018-02-17T08:10:10.941Z,99.99
2018-02-17T08:11:20.917Z,99.99
2018-02-17T08:12:30.629Z,99.99
2018-02-17T08:13:40.587Z,99.99
2018-02-17T08:14:50.560Z,99.99
2018-02-17T08:16:00.518Z,99.99
2018-02-17T08:17:10.521Z,99.99
2018-02-17T08:18:20.500Z,99.99
2018-02-17T08:19:30.457Z,99.99
2018-02-17T08:20:40.425Z,99.99
2018-02-17T08:21:50.382Z,99.99
2018-02-17T08:23:00.353Z,99.99
2018-02-17T08:24:10.313Z,99.99
2018-02-17T08:25:20.012Z,99.99
2018-02-17T08:26:29.975Z,99.99
2018-02-17T08:27:39.676Z,99.99
2018-02-17T08:28:49.642Z,99.99
2018-02-17T08:29:59.337Z,99.99
2018-02-17T08:31:09.309Z,99.99
2018-02-17T08:32:19.010Z,99.99
2018-02-17T08:33:28.995Z,99.99
2018-02-17T08:34:38.719Z,99.99
2018-02-17T08:35:48.682Z,99.99
2018-02-17T08:36:58.380Z,99.99
2018-02-17T08:38:08.076Z,99.99
2018-02-17T08:39:17.800Z,99.99
2018-02-17T08:40:27.515Z,99.99
2018-02-17T08:41:37.465Z,99.99
2018-02-17T08:42:47.420Z,99.99
2018-02-17T08:43:57.387Z,99.99
2018-02-17T08:45:07.105Z,99.99
2018-02-17T08:46:16.809Z,99.99
2018-02-17T08:47:26.506Z,99.99
2018-02-17T08:48:36.224Z,99.99
2018-02-17T08:49:45.936Z,99.99
2018-02-17T08:50:55.133Z,99.99
2018-02-17T08:52:04.930Z,99.99
2018-02-17T08:53:14.654Z,99.99
2018-02-17T08:54:24.361Z,99.99
2018-02-17T08:55:34.340Z,99.99
2018-02-17T08:56:43.800Z,99.99
2018-02-17T08:57:53.244Z,99.99
2018-02-17T08:59:02.437Z,99.99
2018-02-17T09:00:12.141Z,99.99
2018-02-17T09:01:21.608Z,99.99
2018-02-17T09:02:31.586Z,99.99
2018-02-17T09:03:41.022Z,99.99
2018-02-17T09:04:50.970Z,99.99
2018-02-17T09:06:00.672Z,99.99
2018-02-17T09:07:10.395Z,99.99
2018-02-17T09:08:20.115Z,99.99
2018-02-17T09:09:30.081Z,99.99
2018-02-17T09:10:39.783Z,99.99
2018-02-17T09:11:49.238Z,99.99
2018-02-17T09:12:58.983Z,99.99
2018-02-17T09:14:08.424Z,99.99
2018-02-17T09:15:18.391Z,99.99
2018-02-17T09:16:28.102Z,99.99
2018-02-17T09:17:37.802Z,99.99
2018-02-17T09:18:47.752Z,99.99
2018-02-17T09:19:57.261Z,99.99
2018-02-17T09:21:06.714Z,99.99
2018-02-17T09:22:16.678Z,99.99
2018-02-17T09:23:26.375Z,99.99
2018-02-17T09:24:36.351Z,99.99
2018-02-17T09:25:46.050Z,99.99
2018-02-17T09:26:55.503Z,99.99
2018-02-17T09:28:05.209Z,99.99
2018-02-17T09:29:15.201Z,99.99
2018-02-17T09:30:24.905Z,99.99
2018-02-17T09:31:34.910Z,99.99
2018-02-17T09:32:44.610Z,99.99
2018-02-17T09:33:54.336Z,99.99
2018-02-17T09:35:04.326Z,99.99
2018-02-17T09:36:14.289Z,99.99
2018-02-17T09:37:24.000Z,99.99
2018-02-17T09:38:33.459Z,99.99
2018-02-17T09:39:43.420Z,99.99
2018-02-17T09:40:53.143Z,99.99
2018-02-17T09:42:02.861Z,99.99
2018-02-17T09:43:12.571Z,99.99
2018-02-17T09:44:22.029Z,99.99
2018-02-17T09:45:31.475Z,99.99
2018-02-17T09:46:41.177Z,99.99
2018-02-17T09:47:50.944Z,99.99
2018-02-17T09:49:00.925Z,99.99
2018-02-17T09:50:10.625Z,99.99
2018-02-17T09:51:20.330Z,99.99
2018-02-17T09:52:30.028Z,99.99
2018-02-17T09:53:40.001Z,99.99
2018-02-17T09:54:49.988Z,99.99
2018-02-17T09:56:00.061Z,99.99
2018-02-17T09:57:10.031Z,99.99
2018-02-17T09:58:19.486Z,99.99
2018-02-17T09:59:28.928Z,99.99
2018-02-17T10:00:38.916Z,99.99
2018-02-17T10:01:48.614Z,99.99
2018-02-17T10:02:58.068Z,99.99
2018-02-17T10:04:08.033Z,99.99
2018-02-17T10:05:17.733Z,99.99
2018-02-17T10:06:27.710Z,99.99
2018-02-17T10:07:37.157Z,99.99
2018-02-17T10:08:47.129Z,99.99
2018-02-17T10:09:56.846Z,99.99
2018-02-17T10:11:06.828Z,99.99
2018-02-17T10:12:16.535Z,99.99
2018-02-17T10:13:26.257Z,99.99
2018-02-17T10:14:35.974Z,99.99
2018-02-17T10:15:45.695Z,99.99
2018-02-17T10:16:55.686Z,99.99
2018-02-17T10:18:05.649Z,99.99
2018-02-17T10:19:15.621Z,99.99
2018-02-17T10:20:25.629Z,99.99
2018-02-17T10:21:35.358Z,99.99
2018-02-17T10:22:45.330Z,99.99
2018-02-17T10:23:55.299Z,99.99
2018-02-17T10:25:05.286Z,99.99
2018-02-17T10:26:14.998Z,99.99
2018-02-17T10:27:24.706Z,99.99
2018-02-17T10:28:34.434Z,99.99
2018-02-17T10:29:43.627Z,99.99
2018-02-17T10:30:53.338Z,99.99
2018-02-17T10:32:02.796Z,99.99
2018-02-17T10:33:12.506Z,99.99
2018-02-17T10:34:22.240Z,99.99
2018-02-17T10:35:31.756Z,99.99
2018-02-17T10:36:41.702Z,99.99
2018-02-17T10:37:51.409Z,99.99
2018-02-17T10:39:00.868Z,99.99
2018-02-17T10:40:10.570Z,99.99
2018-02-17T10:41:20.614Z,99.99
2018-02-17T10:42:30.327Z,99.99
2018-02-17T10:43:40.042Z,99.99
2018-02-17T10:44:50.008Z,99.99
2018-02-17T10:45:59.703Z,99.99
2018-02-17T10:47:09.150Z,99.99
2018-02-17T10:48:19.112Z,99.99
2018-02-17T10:49:29.088Z,99.99
2018-02-17T10:50:38.647Z,99.99
2018-02-17T10:51:48.395Z,99.99
2018-02-17T10:52:58.364Z,99.99
2018-02-17T10:54:08.334Z,99.99
2018-02-17T10:55:18.301Z,99.99
2018-02-17T10:56:28.273Z,99.99
2018-02-17T10:57:38.225Z,99.99
2018-02-17T10:58:48.201Z,99.99
2018-02-17T10:59:57.918Z,99.99
2018-02-17T11:01:07.898Z,99.99
2018-02-17T11:02:17.612Z,99.99
2018-02-17T11:03:27.317Z,99.99
2018-02-17T11:04:37.021Z,99.99
2018-02-17T11:05:46.995Z,99.99
2018-02-17T11:06:56.953Z,99.99
2018-02-17T11:08:06.659Z,99.99
2018-02-17T11:09:16.618Z,99.99
2018-02-17T11:10:26.058Z,99.99
2018-02-17T11:11:35.498Z,99.73
2018-02-17T11:12:45.462Z,98.87
2018-02-17T11:13:55.430Z,98.4
2018-02-17T11:15:05.410Z,98.59
2018-02-17T11:16:15.370Z,98.11
2018-02-17T11:17:25.092Z,98.59
2018-02-17T11:18:34.543Z,98.87
2018-02-17T11:19:43.987Z,97.92
2018-02-17T11:20:53.455Z,98.4
2018-02-17T11:22:03.166Z,98.16
2018-02-17T11:23:12.353Z,97.6
2018-02-17T11:24:22.089Z,97.12
2018-02-17T11:25:32.076Z,97.31
2018-02-17T11:26:42.057Z,97.31
2018-02-17T11:27:52.022Z,96.45
2018-02-17T11:29:01.989Z,95.31
2018-02-17T11:30:11.785Z,95.7
2018-02-17T11:31:21.755Z,95.41
2018-02-17T11:32:31.738Z,95.12
2018-02-17T11:33:41.704Z,95.03
2018-02-17T11:34:51.414Z,95.41
2018-02-17T11:36:01.387Z,95.89
2018-02-17T11:37:11.091Z,95.22
2018-02-17T11:38:20.795Z,96.08
2018-02-17T11:39:30.768Z,96.36
2018-02-17T11:40:40.737Z,96.83
2018-02-17T11:41:50.200Z,96.36
2018-02-17T11:43:00.224Z,96.45
2018-02-17T11:44:10.002Z,96.45
2018-02-17T11:45:19.976Z,95.98
2018-02-17T11:46:29.703Z,96.17
2018-02-17T11:47:39.414Z,94.84
2018-02-17T11:48:49.382Z,94.46
2018-02-17T11:49:59.086Z,92.94
2018-02-17T11:51:09.056Z,93.6
2018-02-17T11:52:18.774Z,93.08
2018-02-17T11:53:28.501Z,92.99
2018-02-17T11:54:37.980Z,92.61
2018-02-17T11:55:47.425Z,90.8
2018-02-17T11:56:56.609Z,90.8
2018-02-17T11:58:06.328Z,89.86
2018-02-17T11:59:16.030Z,88.9
2018-02-17T12:00:25.740Z,88.9
2018-02-17T12:01:35.446Z,88.71
2018-02-17T12:02:45.427Z,88.34
2018-02-17T12:03:54.871Z,88.24
2018-02-17T12:05:04.342Z,88.24
2018-02-17T12:06:14.055Z,87.95
2018-02-17T12:07:23.768Z,87.01
2018-02-17T12:08:33.500Z,87.95
2018-02-17T12:09:43.480Z,88.62
2018-02-17T12:10:53.468Z,87.24
2018-02-17T12:12:03.189Z,87.29
2018-02-17T12:13:13.164Z,87.81
2018-02-17T12:14:23.152Z,89.04
2018-02-17T12:15:32.866Z,89.76
2018-02-17T12:16:42.326Z,89.8
2018-02-17T12:17:52.300Z,90.14
2018-02-17T12:19:02.006Z,90.42
2018-02-17T12:20:11.996Z,89.14
2018-02-17T12:21:21.976Z,89.19
2018-02-17T12:22:31.752Z,89.14
2018-02-17T12:23:41.568Z,89.33
2018-02-17T12:24:51.288Z,90.14
2018-02-17T12:26:00.489Z,91.04
2018-02-17T12:27:10.208Z,91.47
2018-02-17T12:28:19.927Z,90.8
2018-02-17T12:29:29.749Z,90.85
2018-02-17T12:30:39.722Z,91.04
2018-02-17T12:31:49.684Z,89.95
2018-02-17T12:32:59.651Z,91.09
2018-02-17T12:34:09.356Z,90.14
2018-02-17T12:35:19.593Z,89.47
2018-02-17T12:36:29.301Z,88.62
2018-02-17T12:37:39.009Z,87.95
2018-02-17T12:38:48.713Z,88.05
2018-02-17T12:39:58.691Z,88.71
2018-02-17T12:41:07.884Z,87.57
2018-02-17T12:42:17.868Z,87.95
2018-02-17T12:43:27.565Z,87.76
2018-02-17T12:44:36.752Z,87.86
2018-02-17T12:45:46.795Z,87.19
2018-02-17T12:46:56.504Z,87.01
2018-02-17T12:48:05.963Z,86.91
2018-02-17T12:49:15.399Z,87.1
2018-02-17T12:50:25.376Z,87.19
2018-02-17T12:51:35.095Z,87.76
2018-02-17T12:52:45.061Z,88.62
2018-02-17T12:53:54.007Z,88.71
2018-02-17T12:55:03.990Z,88.62
2018-02-17T12:56:13.969Z,88.81
2018-02-17T12:57:23.947Z,89.86
2018-02-17T12:58:33.651Z,89.62
2018-02-17T12:59:43.640Z,89.62
2018-02-17T13:00:53.092Z,90.38
2018-02-17T13:02:02.297Z,90.47
2018-02-17T13:03:11.762Z,90.19
2018-02-17T13:04:21.726Z,90.47
2018-02-17T13:05:31.727Z,90.38
2018-02-17T13:06:41.703Z,90.09
2018-02-17T13:07:51.408Z,90.09
2018-02-17T13:09:01.371Z,90.28
2018-02-17T13:10:10.830Z,90.28
2018-02-17T13:11:20.543Z,90.28
2018-02-17T13:12:29.990Z,90.38
2018-02-17T13:13:39.426Z,90.19
2018-02-17T13:14:49.271Z,89.72
2018-02-17T13:15:59.236Z,89.81
2018-02-17T13:17:08.725Z,89.24
2018-02-17T13:18:18.445Z,89.14
2018-02-17T13:19:28.156Z,89.28
2018-02-17T13:20:38.128Z,88.43
2018-02-17T13:21:48.109Z,88.15
2018-02-17T13:22:58.077Z,88.53
2018-02-17T13:24:07.787Z,88.29
2018-02-17T13:25:17.749Z,88.95
2018-02-17T13:26:27.712Z,89.14
2018-02-17T13:27:37.421Z,89.9
2018-02-17T13:28:47.144Z,89.72
2018-02-17T13:29:57.102Z,88.86
2018-02-17T13:31:06.812Z,89.24
2018-02-17T13:32:16.540Z,89.05
2018-02-17T13:33:26.263Z,89.19
2018-02-17T13:34:36.227Z,89.09
2018-02-17T13:35:45.679Z,88.9
2018-02-17T13:36:55.662Z,89.09
2018-02-17T13:38:05.657Z,88.43
2018-02-17T13:39:15.642Z,87.76
2018-02-17T13:40:25.600Z,88.53
2018-02-17T13:41:35.045Z,88.43
2018-02-17T13:42:45.010Z,87.95
2018-02-17T13:43:54.991Z,87.76
2018-02-17T13:45:04.971Z,88.43
2018-02-17T13:46:14.712Z,88.15
2018-02-17T13:47:24.696Z,87.57
2018-02-17T13:48:34.952Z,87.76
2018-02-17T13:49:44.679Z,88.34
2018-02-17T13:50:54.651Z,88.05
2018-02-17T13:52:04.613Z,87.86
2018-02-17T13:53:14.318Z,88.15
2018-02-17T13:54:24.033Z,87.86
2018-02-17T13:55:34.021Z,87.48
2018-02-17T13:56:43.980Z,88.34
2018-02-17T13:57:53.967Z,88.2
2018-02-17T13:59:03.953Z,87.76
2018-02-17T14:00:13.670Z,87.57
2018-02-17T14:01:23.646Z,86.43
2018-02-17T14:02:33.095Z,86.82
2018-02-17T14:03:42.800Z,86.53
2018-02-17T14:04:52.249Z,87.29
2018-02-17T14:06:02.221Z,87.1
2018-02-17T14:07:11.964Z,87.29
2018-02-17T14:08:21.689Z,87.29
2018-02-17T14:09:31.861Z,87.38
2018-02-17T14:10:41.600Z,87.38
2018-02-17T14:11:51.080Z,87.29
2018-02-17T14:13:00.573Z,87.29
2018-02-17T14:14:10.277Z,87.57
2018-02-17T14:15:20.009Z,87.38
2018-02-17T14:16:29.552Z,88.48
2018-02-17T14:17:39.554Z,88.57
2018-02-17T14:18:49.260Z,88.29
2018-02-17T14:19:58.975Z,89.05
2018-02-17T14:21:08.765Z,89.24
2018-02-17T14:22:18.470Z,89.24
2018-02-17T14:23:28.193Z,89.72
2018-02-17T14:24:37.906Z,89.72
2018-02-17T14:25:47.885Z,89.24
2018-02-17T14:26:57.329Z,88.95
2018-02-17T14:28:07.336Z,89.33
2018-02-17T14:29:16.798Z,89.05
2018-02-17T14:30:26.517Z,89.14
2018-02-17T14:31:36.503Z,88.86
2018-02-17T14:32:46.217Z,88.29
2018-02-17T14:33:56.215Z,88.95
2018-02-17T14:35:05.939Z,88.48
2018-02-17T14:36:15.918Z,88.39
2018-02-17T14:37:25.896Z,88.48
2018-02-17T14:38:35.868Z,88.29
2018-02-17T14:39:45.854Z,88.48
2018-02-17T14:40:55.562Z,88.95
2018-02-17T14:42:05.550Z,88.95
2018-02-17T14:43:15.526Z,89.9
2018-02-17T14:44:25.509Z,89.62
2018-02-17T14:45:35.229Z,89.81
2018-02-17T14:46:45.211Z,89.72
2018-02-17T14:47:55.189Z,89.72
2018-02-17T14:49:05.149Z,89.81
2018-02-17T14:50:14.884Z,89.33
2018-02-17T14:51:24.780Z,89.33
2018-02-17T14:52:34.800Z,89.72
2018-02-17T14:53:44.776Z,89.72
2018-02-17T14:54:54.746Z,89.72
2018-02-17T14:56:04.730Z,89.72
2018-02-17T14:57:14.461Z,90.09
2018-02-17T14:58:24.184Z,89.72
2018-02-17T14:59:33.930Z,89.81